Time;durP1;ratioP1;P1;durP2;ratioP2;P2;SDS_P1;SDS_P2;PMS_P1;PMS_P2;Temp;Humidity;BMP_temperature;BMP_pressure;BME280_temperature;BME280_humidity;BME280_pressure;Samples;Min_cycle;Max_cycle;Signal;HPM_P1;HPM_P2
2023/06/27 00:00:53;;;;;;;5.25;2.45;;;14.80;99.90;;;;;;4903003;29;20070;-80
2023/06/27 00:03:18;;;;;;;4.97;2.47;;;14.80;99.90;;;;;;4909174;29;20039;-80
2023/06/27 00:05:44;;;;;;;3.95;2.85;;;14.70;99.90;;;;;;4918113;29;20047;-79
2023/06/27 00:08:10;;;;;;;6.80;2.65;;;14.70;99.90;;;;;;4917343;29;20047;-79
2023/06/27 00:10:35;;;;;;;6.07;3.22;;;14.70;99.90;;;;;;4883628;29;20445;-79
2023/06/27 00:13:01;;;;;;;5.57;2.70;;;14.70;99.90;;;;;;4917706;29;20044;-79
2023/06/27 00:15:29;;;;;;;8.63;2.80;;;14.70;99.90;;;;;;4902092;29;20051;-80
2023/06/27 00:17:55;;;;;;;5.45;2.53;;;14.60;99.90;;;;;;4883471;29;20486;-80
2023/06/27 00:20:21;;;;;;;5.65;2.70;;;14.60;99.90;;;;;;4927040;29;20445;-80
2023/06/27 00:22:47;;;;;;;5.47;2.72;;;14.60;99.90;;;;;;4923178;29;20118;-79
2023/06/27 00:25:13;;;;;;;7.35;3.03;;;14.60;99.90;;;;;;4901969;29;20048;-80
2023/06/27 00:27:39;;;;;;;7.07;3.00;;;14.60;99.90;;;;;;4901760;29;20079;-80
2023/06/27 00:30:05;;;;;;;7.90;2.83;;;14.50;99.90;;;;;;4918466;29;20401;-81
2023/06/27 00:32:31;;;;;;;5.28;2.78;;;14.60;99.90;;;;;;4902711;29;20130;-80
2023/06/27 00:34:57;;;;;;;4.38;2.75;;;14.60;99.90;;;;;;4902342;29;20127;-80
2023/06/27 00:37:22;;;;;;;7.28;3.22;;;14.60;99.90;;;;;;4892438;29;20499;-79
2023/06/27 00:39:48;;;;;;;6.93;3.10;;;14.60;99.90;;;;;;4905735;29;20493;-79
2023/06/27 00:42:14;;;;;;;7.47;3.40;;;14.60;99.90;;;;;;4886300;29;20062;-79
2023/06/27 00:44:40;;;;;;;6.80;2.78;;;14.60;99.90;;;;;;4917469;29;20412;-79
2023/06/27 00:47:06;;;;;;;6.35;3.30;;;14.70;99.90;;;;;;4905527;29;20101;-79
2023/06/27 00:49:32;;;;;;;3.80;2.55;;;14.60;99.90;;;;;;4921930;29;20118;-80
2023/06/27 00:51:59;;;;;;;6.40;2.72;;;14.60;99.90;;;;;;4901660;29;20382;-80
2023/06/27 00:54:25;;;;;;;6.60;3.30;;;14.50;99.90;;;;;;4901449;29;20044;-79
2023/06/27 00:56:55;;;;;;;4.32;2.80;;;14.50;99.90;;;;;;4901692;29;20043;-80
2023/06/27 00:59:22;;;;;;;5.43;3.20;;;14.50;99.90;;;;;;4901964;29;20404;-80
2023/06/27 01:01:48;;;;;;;5.10;3.28;;;14.40;99.90;;;;;;4945391;29;20039;-79
2023/06/27 01:04:14;;;;;;;8.02;2.97;;;14.40;99.90;;;;;;4921168;29;20094;-80
2023/06/27 01:07:04;;;;;;;5.13;2.80;;;14.30;99.90;;;;;;4896249;29;20082;-80
2023/06/27 01:09:48;;;;;;;5.28;2.80;;;14.30;99.90;;;;;;4917307;29;20048;-80
2023/06/27 01:12:25;;;;;;;5.40;3.05;;;14.30;99.90;;;;;;4917037;29;20047;-79
2023/06/27 01:14:54;;;;;;;5.82;3.13;;;14.20;99.90;;;;;;4904254;29;20079;-79
2023/06/27 01:17:21;;;;;;;5.97;3.05;;;14.20;99.90;;;;;;4916888;29;20493;-80
2023/06/27 01:19:49;;;;;;;4.30;3.05;;;14.20;99.90;;;;;;4916881;29;20078;-79
2023/06/27 01:22:18;;;;;;;5.45;3.20;;;14.20;99.90;;;;;;4912177;29;20110;-80
2023/06/27 01:24:45;;;;;;;4.30;2.78;;;14.10;99.90;;;;;;4901436;29;20075;-80
2023/06/27 01:27:13;;;;;;;5.78;3.25;;;14.10;99.90;;;;;;4917047;29;20162;-80
2023/06/27 01:29:41;;;;;;;6.60;3.13;;;14.00;99.90;;;;;;4918776;29;20069;-80
2023/06/27 01:32:11;;;;;;;4.88;3.25;;;14.00;99.90;;;;;;4910841;29;20036;-80
2023/06/27 01:34:56;;;;;;;5.20;3.10;;;14.00;99.90;;;;;;4900603;29;20047;-80
2023/06/27 01:37:27;;;;;;;4.13;2.90;;;14.00;99.90;;;;;;4900114;29;20044;-80
2023/06/27 01:40:08;;;;;;;5.83;3.30;;;14.00;99.90;;;;;;4919625;29;20039;-80
2023/06/27 01:42:40;;;;;;;4.82;3.60;;;14.00;99.90;;;;;;4916230;29;20050;-80
2023/06/27 01:45:07;;;;;;;6.40;3.50;;;14.00;99.90;;;;;;4899661;29;20055;-80
2023/06/27 01:47:36;;;;;;;3.85;3.08;;;14.00;99.90;;;;;;4899762;29;20070;-80
2023/06/27 01:50:03;;;;;;;4.30;3.58;;;13.90;99.90;;;;;;4899122;29;20107;-79
2023/06/27 01:52:29;;;;;;;5.13;3.08;;;13.90;99.90;;;;;;4915644;29;20051;-80
2023/06/27 01:54:54;;;;;;;5.00;2.90;;;13.90;99.90;;;;;;4899537;29;20055;-80
2023/06/27 01:57:20;;;;;;;4.22;3.28;;;13.90;99.90;;;;;;4900828;29;20468;-80
2023/06/27 01:59:46;;;;;;;5.68;3.25;;;13.80;99.90;;;;;;4916524;29;20496;-79
2023/06/27 02:02:12;;;;;;;6.10;3.65;;;13.80;99.90;;;;;;4900351;29;20049;-79
2023/06/27 02:04:37;;;;;;;3.95;3.08;;;13.80;99.90;;;;;;4902636;29;20079;-79
2023/06/27 02:07:03;;;;;;;5.30;3.13;;;13.80;99.90;;;;;;4904168;29;20534;-80
2023/06/27 02:09:29;;;;;;;4.80;3.70;;;13.80;99.90;;;;;;4904287;29;20298;-79
2023/06/27 02:11:54;;;;;;;5.60;3.22;;;13.80;99.90;;;;;;4920269;29;20079;-80
2023/06/27 02:14:20;;;;;;;7.47;3.28;;;13.80;99.90;;;;;;4904651;29;20102;-80
2023/06/27 02:16:46;;;;;;;4.68;2.90;;;13.80;99.90;;;;;;4904710;29;20508;-80
2023/06/27 02:19:11;;;;;;;4.43;3.20;;;13.70;99.90;;;;;;4904417;29;20115;-79
2023/06/27 02:21:37;;;;;;;4.50;3.00;;;13.80;99.90;;;;;;4904028;29;20035;-80
2023/06/27 02:24:03;;;;;;;5.10;3.13;;;13.80;99.90;;;;;;4919722;29;20055;-80
2023/06/27 02:26:29;;;;;;;4.20;3.40;;;13.70;99.90;;;;;;4904052;29;20055;-79
2023/06/27 02:28:54;;;;;;;3.53;2.97;;;13.70;99.90;;;;;;4919926;29;20032;-79
2023/06/27 02:31:20;;;;;;;7.10;3.58;;;13.60;99.90;;;;;;4903881;29;20469;-79
2023/06/27 02:33:46;;;;;;;6.80;3.10;;;13.70;99.90;;;;;;4919488;29;20667;-80
2023/06/27 02:36:12;;;;;;;4.65;3.22;;;13.70;99.90;;;;;;4887930;29;20069;-80
2023/06/27 02:38:38;;;;;;;6.20;3.15;;;13.70;99.90;;;;;;4888242;29;20047;-80
2023/06/27 02:41:04;;;;;;;4.47;3.30;;;13.70;99.90;;;;;;4919278;29;20405;-80
2023/06/27 02:43:29;;;;;;;4.95;3.33;;;13.60;99.90;;;;;;4903650;29;20067;-80
2023/06/27 02:45:55;;;;;;;5.63;3.13;;;13.60;99.90;;;;;;4888327;29;20040;-80
2023/06/27 02:48:21;;;;;;;8.70;3.30;;;13.60;99.90;;;;;;4903708;29;20058;-80
2023/06/27 02:50:50;;;;;;;6.18;3.30;;;13.70;99.90;;;;;;4918641;29;20428;-80
2023/06/27 02:53:17;;;;;;;5.47;3.15;;;13.70;99.90;;;;;;4903529;29;20134;-80
2023/06/27 02:55:43;;;;;;;5.53;3.20;;;13.60;99.90;;;;;;4918867;29;20047;-80
2023/06/27 02:58:09;;;;;;;5.72;3.58;;;13.60;99.90;;;;;;4888104;29;20039;-80
2023/06/27 03:00:34;;;;;;;4.93;2.90;;;13.60;99.90;;;;;;4918853;29;20512;-80
2023/06/27 03:03:00;;;;;;;5.35;3.03;;;13.60;99.90;;;;;;4902671;29;20106;-80
2023/06/27 03:05:26;;;;;;;5.65;3.05;;;13.50;99.90;;;;;;4903416;29;20051;-80
2023/06/27 03:07:51;;;;;;;5.15;3.22;;;13.50;99.90;;;;;;4903516;29;20542;-80
2023/06/27 03:10:17;;;;;;;5.45;3.22;;;13.50;99.90;;;;;;4888232;29;20039;-80
2023/06/27 03:12:43;;;;;;;5.70;2.90;;;13.50;99.90;;;;;;4884709;29;20375;-80
2023/06/27 03:15:09;;;;;;;9.05;3.78;;;13.50;99.90;;;;;;4902673;29;20050;-79
2023/06/27 03:17:34;;;;;;;6.43;3.63;;;13.50;99.90;;;;;;4903408;29;20052;-80
2023/06/27 03:20:00;;;;;;;7.32;3.50;;;13.40;99.90;;;;;;4908828;29;20771;-80
2023/06/27 03:22:26;;;;;;;7.80;3.78;;;13.40;99.90;;;;;;4903318;29;20180;-80
2023/06/27 03:24:52;;;;;;;5.55;3.50;;;13.40;99.90;;;;;;4917917;29;20047;-80
2023/06/27 03:27:20;;;;;;;5.15;3.70;;;13.40;99.90;;;;;;4902667;29;20065;-80
2023/06/27 03:29:46;;;;;;;4.22;3.60;;;13.40;99.90;;;;;;4918990;29;20131;-80
2023/06/27 03:32:13;;;;;;;5.65;3.60;;;13.40;99.90;;;;;;4918530;29;20039;-80
2023/06/27 03:34:41;;;;;;;7.88;3.80;;;13.50;99.90;;;;;;4903506;29;20083;-80
2023/06/27 03:37:07;;;;;;;5.15;3.35;;;13.50;99.90;;;;;;4903206;29;20115;-80
2023/06/27 03:39:33;;;;;;;5.53;3.90;;;13.50;99.90;;;;;;4902552;29;20075;-80
2023/06/27 03:41:59;;;;;;;5.90;3.60;;;13.40;99.90;;;;;;4918310;29;20066;-80
2023/06/27 03:44:25;;;;;;;4.18;3.38;;;13.50;99.90;;;;;;4902490;29;20047;-80
2023/06/27 03:46:51;;;;;;;4.45;3.53;;;13.60;99.90;;;;;;4902492;29;20143;-80
2023/06/27 03:49:17;;;;;;;9.55;3.72;;;13.70;99.90;;;;;;4908540;29;20063;-79
2023/06/27 03:51:42;;;;;;;8.13;3.80;;;13.80;99.90;;;;;;4926638;29;20150;-80
2023/06/27 03:54:09;;;;;;;7.30;3.95;;;13.90;99.90;;;;;;4886561;29;20036;-79
2023/06/27 03:56:35;;;;;;;6.32;3.97;;;13.90;99.90;;;;;;4902655;29;20075;-80
2023/06/27 03:59:00;;;;;;;5.55;3.80;;;13.90;99.90;;;;;;4918230;29;20468;-79
2023/06/27 04:01:26;;;;;;;5.53;4.05;;;13.90;99.90;;;;;;4902000;29;20119;-79
2023/06/27 04:03:52;;;;;;;5.47;4.10;;;14.00;99.90;;;;;;4902429;29;20069;-79
2023/06/27 04:06:18;;;;;;;6.78;4.22;;;14.00;99.90;;;;;;4886073;29;20075;-80
2023/06/27 04:08:44;;;;;;;6.45;3.95;;;14.00;99.90;;;;;;4890556;29;20083;-79
2023/06/27 04:11:10;;;;;;;6.95;4.38;;;14.00;99.90;;;;;;4905582;29;20051;-79
2023/06/27 04:13:37;;;;;;;5.05;3.90;;;14.00;99.90;;;;;;4902076;29;20043;-79
2023/06/27 04:16:03;;;;;;;9.40;4.43;;;14.00;99.90;;;;;;4886795;29;20464;-79
2023/06/27 04:18:32;;;;;;;6.07;4.13;;;14.00;99.90;;;;;;4903159;29;20040;-80
2023/06/27 04:20:58;;;;;;;6.15;4.47;;;14.00;99.90;;;;;;4901129;29;20051;-80
2023/06/27 04:23:24;;;;;;;7.38;4.63;;;14.10;99.90;;;;;;4895042;29;20043;-79
2023/06/27 04:26:04;;;;;;;7.88;5.10;;;14.10;99.90;;;;;;4902788;29;20047;-79
2023/06/27 04:28:34;;;;;;;6.75;4.40;;;14.20;99.90;;;;;;4917687;29;20059;-79
2023/06/27 04:31:01;;;;;;;6.05;4.68;;;14.20;99.90;;;;;;4917906;29;20047;-80
2023/06/27 04:33:27;;;;;;;9.75;5.07;;;14.20;99.90;;;;;;4907919;29;20114;-80
2023/06/27 04:35:54;;;;;;;9.93;4.65;;;14.40;99.90;;;;;;4922649;29;20039;-79
2023/06/27 04:38:20;;;;;;;6.68;4.30;;;14.40;99.90;;;;;;4933243;29;20477;-79
2023/06/27 04:40:46;;;;;;;7.80;4.50;;;14.50;99.90;;;;;;4917292;29;20043;-79
2023/06/27 04:43:13;;;;;;;7.25;5.05;;;14.60;99.90;;;;;;4933243;29;20039;-79
2023/06/27 04:45:39;;;;;;;9.80;5.18;;;14.70;99.90;;;;;;4886728;29;20043;-80
2023/06/27 04:48:05;;;;;;;8.50;5.07;;;14.80;99.90;;;;;;4905834;29;20054;-81
2023/06/27 04:50:30;;;;;;;10.13;5.47;;;15.10;99.90;;;;;;4886107;29;20056;-79
2023/06/27 04:52:56;;;;;;;8.70;4.45;;;15.40;99.90;;;;;;4886085;29;20118;-80
2023/06/27 04:55:22;;;;;;;9.43;4.97;;;15.40;99.90;;;;;;4901615;29;20044;-79
2023/06/27 04:57:47;;;;;;;9.20;5.28;;;15.40;99.90;;;;;;4917126;29;20055;-80
2023/06/27 05:00:14;;;;;;;7.72;4.93;;;15.30;99.90;;;;;;4886083;29;20417;-79
2023/06/27 05:02:39;;;;;;;7.68;4.82;;;15.30;99.90;;;;;;4902196;29;20052;-79
2023/06/27 05:05:07;;;;;;;9.38;4.97;;;15.30;99.90;;;;;;4901610;29;20051;-82
2023/06/27 05:07:34;;;;;;;6.35;4.93;;;15.30;99.90;;;;;;4886251;29;20046;-80
2023/06/27 05:09:59;;;;;;;8.68;5.00;;;15.30;99.90;;;;;;4901952;29;20134;-79
2023/06/27 05:12:26;;;;;;;9.98;5.05;;;15.40;99.90;;;;;;4886001;29;20442;-79
2023/06/27 05:14:51;;;;;;;10.05;4.57;;;15.40;99.90;;;;;;4928839;29;20063;-80
2023/06/27 05:17:17;;;;;;;8.63;4.90;;;15.40;99.90;;;;;;4901680;29;20405;-80
2023/06/27 05:19:43;;;;;;;9.98;4.88;;;15.50;99.90;;;;;;4901366;29;20403;-82
2023/06/27 05:22:08;;;;;;;8.85;5.03;;;15.50;99.90;;;;;;4917284;29;20457;-83
2023/06/27 05:24:34;;;;;;;10.75;4.55;;;15.60;99.90;;;;;;4885782;29;20052;-83
2023/06/27 05:27:00;;;;;;;5.50;3.97;;;15.60;99.90;;;;;;4917102;29;20043;-83
2023/06/27 05:29:26;;;;;;;9.38;4.45;;;15.70;99.90;;;;;;4928053;29;20061;-83
2023/06/27 05:31:51;;;;;;;7.07;4.70;;;15.70;99.90;;;;;;4932589;29;20048;-86
2023/06/27 05:34:17;;;;;;;7.85;4.40;;;15.80;99.90;;;;;;4917027;29;20044;-84
2023/06/27 05:36:43;;;;;;;7.93;5.18;;;15.80;99.90;;;;;;4901804;29;20048;-83
2023/06/27 05:39:08;;;;;;;7.03;4.68;;;15.90;99.90;;;;;;4885066;29;20485;-83
2023/06/27 05:41:34;;;;;;;8.95;4.68;;;16.00;99.90;;;;;;4917371;29;20070;-82
2023/06/27 05:44:00;;;;;;;8.90;4.10;;;16.10;99.90;;;;;;4901527;29;20493;-83
2023/06/27 05:46:25;;;;;;;4.63;3.83;;;16.20;99.90;;;;;;4917248;29;20051;-85
2023/06/27 05:48:51;;;;;;;6.10;3.60;;;16.30;99.90;;;;;;4891505;29;20047;-85
2023/06/27 05:51:17;;;;;;;8.30;4.00;;;16.50;99.90;;;;;;4899648;29;20044;-86
2023/06/27 05:53:43;;;;;;;11.55;4.05;;;16.60;99.90;;;;;;4900820;29;20055;-83
2023/06/27 05:56:08;;;;;;;7.85;3.78;;;16.80;99.90;;;;;;4916396;29;20601;-82
2023/06/27 05:58:37;;;;;;;6.00;3.17;;;16.90;99.90;;;;;;4916150;29;20032;-83
2023/06/27 06:01:03;;;;;;;7.75;3.35;;;17.10;99.90;;;;;;4900967;29;20044;-83
2023/06/27 06:03:29;;;;;;;8.52;3.20;;;17.20;99.90;;;;;;4908306;29;20038;-83
2023/06/27 06:05:54;;;;;;;5.60;3.35;;;17.30;99.90;;;;;;4928860;29;20047;-82
2023/06/27 06:08:20;;;;;;;6.60;2.97;;;17.50;99.90;;;;;;4906237;29;20440;-84
2023/06/27 06:10:50;;;;;;;5.35;3.10;;;17.60;99.90;;;;;;4907320;29;20047;-84
2023/06/27 06:13:15;;;;;;;7.97;2.90;;;17.70;99.90;;;;;;4889519;29;20467;-83
2023/06/27 06:15:41;;;;;;;7.18;3.20;;;17.90;99.90;;;;;;4911687;29;20044;-83
2023/06/27 06:18:07;;;;;;;7.72;2.90;;;18.00;99.90;;;;;;4885220;29;20048;-83
2023/06/27 06:20:32;;;;;;;6.05;2.58;;;18.10;99.90;;;;;;4901260;29;20046;-83
2023/06/27 06:22:59;;;;;;;4.95;2.88;;;18.20;99.90;;;;;;4918063;29;20040;-83
2023/06/27 06:25:26;;;;;;;2.97;2.25;;;18.30;99.90;;;;;;4902746;29;20607;-84
2023/06/27 06:27:52;;;;;;;5.97;2.67;;;18.40;99.90;;;;;;4902968;29;20504;-83
2023/06/27 06:30:18;;;;;;;5.13;2.58;;;18.60;99.90;;;;;;4887273;29;20123;-83
2023/06/27 06:32:44;;;;;;;6.88;2.58;;;18.60;99.90;;;;;;4887559;29;20493;-84
2023/06/27 06:35:10;;;;;;;8.18;2.63;;;18.70;99.90;;;;;;4918122;29;20071;-82
2023/06/27 06:37:36;;;;;;;5.30;2.70;;;18.80;99.90;;;;;;4918677;29;20048;-84
2023/06/27 06:40:02;;;;;;;5.40;2.30;;;18.90;99.90;;;;;;4886972;29;20038;-83
2023/06/27 06:42:28;;;;;;;4.70;2.20;;;19.00;99.90;;;;;;4902260;29;20103;-84
2023/06/27 06:44:53;;;;;;;7.97;2.50;;;19.20;99.90;;;;;;4886895;29;20051;-85
2023/06/27 06:47:20;;;;;;;5.50;2.28;;;19.30;99.90;;;;;;4917622;29;20693;-85
2023/06/27 06:49:46;;;;;;;5.90;1.90;;;19.40;99.90;;;;;;4870330;29;20064;-85
2023/06/27 06:52:12;;;;;;;5.28;2.33;;;19.50;99.90;;;;;;4923801;29;20153;-84
2023/06/27 06:54:38;;;;;;;3.03;1.73;;;19.60;99.90;;;;;;4892342;29;20047;-83
2023/06/27 06:57:05;;;;;;;7.07;1.90;;;19.70;99.90;;;;;;4939683;29;20497;-83
2023/06/27 06:59:31;;;;;;;5.88;1.75;;;19.70;99.90;;;;;;4904679;29;20054;-84
2023/06/27 07:01:57;;;;;;;4.72;1.55;;;19.90;99.90;;;;;;4904183;29;20513;-87
2023/06/27 07:04:23;;;;;;;4.97;1.77;;;19.90;99.90;;;;;;4920213;29;20039;-85
2023/06/27 07:06:49;;;;;;;3.00;1.20;;;20.00;99.90;;;;;;4919609;29;20714;-88
2023/06/27 07:09:14;;;;;;;4.28;1.60;;;20.10;99.90;;;;;;4919675;29;20040;-83
2023/06/27 07:11:41;;;;;;;4.68;1.65;;;20.20;99.90;;;;;;4948337;29;20121;-84
2023/06/27 07:14:07;;;;;;;6.30;1.70;;;20.20;99.90;;;;;;4890042;29;20516;-84
2023/06/27 07:16:33;;;;;;;2.97;1.42;;;20.30;99.90;;;;;;4888925;29;20052;-84
2023/06/27 07:18:58;;;;;;;2.58;1.17;;;20.40;99.90;;;;;;4919839;29;20035;-84
2023/06/27 07:21:24;;;;;;;3.00;1.25;;;20.50;99.90;;;;;;4917535;29;20042;-84
2023/06/27 07:23:50;;;;;;;3.78;1.60;;;20.50;99.90;;;;;;4895951;29;20046;-82
2023/06/27 07:26:15;;;;;;;3.78;1.48;;;20.50;99.90;;;;;;4919744;29;20054;-82
2023/06/27 07:28:41;;;;;;;3.17;1.10;;;20.50;99.90;;;;;;4905100;29;20054;-83
2023/06/27 07:31:07;;;;;;;3.67;1.45;;;20.50;99.90;;;;;;4904298;29;20457;-85
2023/06/27 07:33:33;;;;;;;5.72;1.40;;;20.50;99.90;;;;;;4903428;29;20062;-87
2023/06/27 07:35:58;;;;;;;5.00;1.42;;;20.50;99.90;;;;;;4904178;29;20066;-87
2023/06/27 07:38:24;;;;;;;2.95;1.45;;;20.50;99.90;;;;;;4904187;29;20040;-84
2023/06/27 07:40:50;;;;;;;3.83;1.35;;;20.40;99.90;;;;;;4888521;29;20082;-83
2023/06/27 07:43:16;;;;;;;4.30;1.40;;;20.30;99.90;;;;;;4919247;29;20134;-85
2023/06/27 07:45:42;;;;;;;3.05;1.17;;;20.20;99.90;;;;;;4904463;29;20043;-84
2023/06/27 07:48:08;;;;;;;3.03;1.30;;;20.30;99.90;;;;;;4903734;29;20040;-80
2023/06/27 07:50:33;;;;;;;3.85;1.30;;;20.30;99.90;;;;;;4915762;29;20115;-83
2023/06/27 07:52:59;;;;;;;3.60;1.42;;;20.40;99.90;;;;;;4915686;29;20052;-82
2023/06/27 07:55:25;;;;;;;4.47;1.35;;;20.50;99.90;;;;;;4898979;29;20036;-84
2023/06/27 07:57:51;;;;;;;2.17;0.95;;;20.80;99.90;;;;;;4883352;29;20044;-85
2023/06/27 08:00:17;;;;;;;4.70;1.70;;;20.80;99.90;;;;;;4887321;29;20079;-83
2023/06/27 08:02:43;;;;;;;2.13;1.10;;;20.90;99.90;;;;;;4903706;29;20476;-84
2023/06/27 08:05:09;;;;;;;2.70;1.02;;;21.00;99.90;;;;;;4898485;29;20055;-84
2023/06/27 08:07:35;;;;;;;3.50;1.20;;;21.20;99.90;;;;;;4898318;29;20051;-84
2023/06/27 08:10:03;;;;;;;3.17;1.02;;;21.30;99.90;;;;;;4899606;29;20496;-84
2023/06/27 08:12:28;;;;;;;2.25;0.98;;;21.20;99.90;;;;;;4907901;29;20043;-84
2023/06/27 08:14:54;;;;;;;4.53;1.30;;;21.30;99.90;;;;;;4914385;29;20049;-83
2023/06/27 08:17:20;;;;;;;4.65;1.35;;;21.20;99.90;;;;;;4914774;29;20417;-84
2023/06/27 08:19:45;;;;;;;3.22;1.08;;;21.20;99.90;;;;;;4884333;29;20047;-82
2023/06/27 08:22:12;;;;;;;4.18;1.23;;;21.00;99.90;;;;;;4899453;29;20047;-83
2023/06/27 08:24:40;;;;;;;3.88;1.00;;;21.00;99.90;;;;;;4883419;29;20051;-83
2023/06/27 08:27:06;;;;;;;3.92;1.23;;;21.00;99.90;;;;;;4900070;29;20594;-84
2023/06/27 08:29:33;;;;;;;3.22;1.20;;;20.90;99.90;;;;;;4899756;29;20048;-84
2023/06/27 08:31:59;;;;;;;3.17;1.17;;;20.70;99.90;;;;;;4888078;29;20040;-84
2023/06/27 08:34:33;;;;;;;3.42;1.10;;;20.80;99.90;;;;;;4884342;29;20044;-82
2023/06/27 08:36:59;;;;;;;5.30;1.20;;;20.90;99.90;;;;;;4900094;29;20391;-84
2023/06/27 08:39:26;;;;;;;6.18;1.65;;;20.90;99.90;;;;;;4915422;29;20051;-83
2023/06/27 08:41:52;;;;;;;7.28;2.15;;;20.80;99.90;;;;;;4899643;29;20048;-84
2023/06/27 08:44:17;;;;;;;4.88;1.23;;;20.70;99.90;;;;;;4915672;29;20051;-83
2023/06/27 08:46:47;;;;;;;5.00;1.13;;;20.60;99.90;;;;;;4915224;29;20036;-85
2023/06/27 08:49:19;;;;;;;3.42;1.20;;;20.50;99.90;;;;;;4902118;29;20409;-84
2023/06/27 08:51:49;;;;;;;3.97;1.20;;;20.30;99.90;;;;;;4902848;29;20042;-84
2023/06/27 08:54:27;;;;;;;3.88;1.20;;;20.40;99.90;;;;;;4918062;29;20516;-84
2023/06/27 08:56:53;;;;;;;4.30;1.20;;;20.60;99.90;;;;;;4901712;29;20183;-85
2023/06/27 08:59:25;;;;;;;4.15;1.08;;;20.80;99.90;;;;;;4917352;29;20074;-84
2023/06/27 09:01:52;;;;;;;3.00;1.17;;;21.10;99.90;;;;;;4917579;29;20043;-85
2023/06/27 09:04:18;;;;;;;2.97;1.25;;;21.40;95.80;;;;;;4886518;29;20042;-84
2023/06/27 09:06:46;;;;;;;3.03;1.33;;;21.50;94.50;;;;;;4902183;29;20039;-83
2023/06/27 09:09:14;;;;;;;3.78;1.20;;;21.60;93.00;;;;;;4886354;29;20040;-83
2023/06/27 09:11:41;;;;;;;2.80;1.10;;;21.70;91.50;;;;;;4929523;29;20527;-85
2023/06/27 09:14:07;;;;;;;2.53;1.00;;;21.70;91.90;;;;;;4908518;29;20513;-83
2023/06/27 09:16:34;;;;;;;1.95;1.10;;;21.90;94.20;;;;;;4900827;29;20039;-83
2023/06/27 09:19:00;;;;;;;2.72;0.90;;;22.10;90.30;;;;;;4909733;29;20051;-84
2023/06/27 09:21:26;;;;;;;2.80;1.10;;;22.30;87.30;;;;;;4920399;29;20382;-83
2023/06/27 09:23:53;;;;;;;2.50;1.08;;;22.40;81.20;;;;;;4932247;29;20058;-82
2023/06/27 09:26:18;;;;;;;3.58;1.10;;;22.30;74.50;;;;;;4901281;29;20052;-83
2023/06/27 09:28:49;;;;;;;3.35;1.00;;;22.30;74.20;;;;;;4901678;29;20052;-84
2023/06/27 09:31:22;;;;;;;2.38;0.98;;;22.20;72.30;;;;;;4901302;29;20520;-83
2023/06/27 09:33:48;;;;;;;2.35;0.98;;;22.20;70.60;;;;;;4871088;29;20043;-84
2023/06/27 09:36:31;;;;;;;2.90;0.90;;;22.30;72.30;;;;;;4901923;29;20470;-84
2023/06/27 09:39:03;;;;;;;4.45;1.20;;;22.20;71.00;;;;;;4901547;29;20107;-82
2023/06/27 09:41:49;;;;;;;2.45;1.00;;;22.30;72.40;;;;;;4901542;29;20218;-84
2023/06/27 09:44:24;;;;;;;2.80;0.90;;;22.40;70.00;;;;;;4901504;29;20196;-84
2023/06/27 09:46:54;;;;;;;3.15;1.30;;;22.40;69.20;;;;;;4917387;29;20050;-83
2023/06/27 09:49:22;;;;;;;2.78;1.10;;;22.40;69.90;;;;;;4901535;29;20059;-84
2023/06/27 09:51:52;;;;;;;5.07;1.50;;;22.40;70.20;;;;;;4901832;29;20047;-85
2023/06/27 09:54:21;;;;;;;2.50;1.02;;;22.50;71.00;;;;;;4887236;29;20054;-84
2023/06/27 09:56:51;;;;;;;3.22;0.90;;;22.40;70.00;;;;;;4886857;29;20048;-84
2023/06/27 09:59:26;;;;;;;1.90;1.02;;;22.40;68.70;;;;;;4902538;29;20509;-85
2023/06/27 10:01:53;;;;;;;3.42;1.20;;;22.40;69.90;;;;;;4917300;29;20126;-83
2023/06/27 10:04:19;;;;;;;3.45;1.05;;;22.60;72.80;;;;;;4917679;29;20578;-84
2023/06/27 10:06:45;;;;;;;3.13;1.10;;;22.60;72.50;;;;;;4901735;29;20051;-83
2023/06/27 10:09:12;;;;;;;3.45;1.05;;;22.40;72.20;;;;;;4916639;29;21499;-83
2023/06/27 10:11:39;;;;;;;2.15;1.15;;;22.30;73.90;;;;;;4899922;29;20107;-83
2023/06/27 10:14:05;;;;;;;3.70;1.35;;;22.10;76.30;;;;;;4886201;29;20075;-83
2023/06/27 10:16:31;;;;;;;2.30;1.00;;;22.10;79.20;;;;;;4917368;29;20043;-83
2023/06/27 10:18:57;;;;;;;4.22;1.13;;;22.20;79.30;;;;;;4885912;29;20051;-83
2023/06/27 10:21:26;;;;;;;3.33;1.35;;;22.20;79.60;;;;;;4885347;29;20040;-84
2023/06/27 10:23:55;;;;;;;3.60;1.35;;;22.10;81.90;;;;;;4886154;29;20047;-84
2023/06/27 10:26:25;;;;;;;3.70;1.40;;;22.10;80.30;;;;;;4904375;29;20051;-84
2023/06/27 10:28:51;;;;;;;2.67;1.02;;;22.00;78.00;;;;;;4920544;29;20043;-85
2023/06/27 10:31:39;;;;;;;4.57;1.20;;;22.00;78.20;;;;;;4889148;29;20061;-84
2023/06/27 10:34:06;;;;;;;5.38;1.33;;;22.10;78.10;;;;;;4885820;29;20055;-84
2023/06/27 10:37:04;;;;;;;3.00;1.10;;;22.20;81.20;;;;;;4916733;29;20047;-85
2023/06/27 10:39:32;;;;;;;5.13;1.50;;;22.40;83.40;;;;;;4904306;29;20042;-84
2023/06/27 10:42:01;;;;;;;4.43;1.17;;;22.40;82.30;;;;;;4904278;29;20051;-82
2023/06/27 10:44:27;;;;;;;3.30;1.33;;;22.50;84.40;;;;;;4904539;29;20106;-85
2023/06/27 10:47:34;;;;;;;4.22;1.35;;;22.60;81.10;;;;;;4904332;29;20044;-84
2023/06/27 10:50:24;;;;;;;3.67;1.10;;;22.70;82.60;;;;;;4867498;29;20713;-84
2023/06/27 10:53:06;;;;;;;2.25;1.30;;;22.60;88.70;;;;;;4899548;29;20051;-84
2023/06/27 10:55:32;;;;;;;2.70;1.13;;;22.50;87.50;;;;;;4904422;29;20106;-85
2023/06/27 10:58:02;;;;;;;2.15;1.10;;;22.60;87.00;;;;;;4904633;29;20126;-86
2023/06/27 11:00:31;;;;;;;5.03;1.30;;;22.80;79.50;;;;;;4904869;29;20448;-84
2023/06/27 11:02:58;;;;;;;3.58;1.15;;;22.70;80.70;;;;;;4904912;29;20047;-84
2023/06/27 11:05:43;;;;;;;4.53;1.55;;;22.70;84.40;;;;;;4889069;29;20051;-85
2023/06/27 11:08:17;;;;;;;3.70;1.15;;;22.60;84.80;;;;;;4920282;29;20043;-84
2023/06/27 11:11:13;;;;;;;2.47;1.50;;;22.60;88.40;;;;;;4904596;29;20370;-84
2023/06/27 11:13:44;;;;;;;4.53;1.60;;;22.50;76.70;;;;;;4894834;29;20063;-83
2023/06/27 11:16:11;;;;;;;2.88;1.25;;;22.30;77.20;;;;;;4915577;29;20119;-84
2023/06/27 11:18:37;;;;;;;2.90;1.20;;;22.40;81.10;;;;;;4920430;29;20082;-84
2023/06/27 11:21:04;;;;;;;2.58;1.10;;;22.60;79.30;;;;;;4920460;29;20484;-83
2023/06/27 11:23:30;;;;;;;2.88;1.20;;;22.70;78.10;;;;;;4904155;29;20501;-82
2023/06/27 11:25:55;;;;;;;3.38;1.30;;;22.60;76.30;;;;;;4924879;29;20051;-83
2023/06/27 11:28:23;;;;;;;2.58;1.15;;;22.70;74.60;;;;;;4888503;29;20051;-83
2023/06/27 11:30:50;;;;;;;3.20;1.00;;;23.00;75.60;;;;;;4904111;29;20051;-83
2023/06/27 11:33:19;;;;;;;3.53;1.08;;;23.00;76.50;;;;;;4903825;29;20047;-83
2023/06/27 11:35:46;;;;;;;3.05;1.00;;;22.90;76.90;;;;;;4903894;29;20079;-84
2023/06/27 11:38:12;;;;;;;5.72;1.30;;;22.80;72.30;;;;;;4919204;29;20533;-82
2023/06/27 11:40:50;;;;;;;3.55;1.10;;;22.70;71.80;;;;;;4919691;29;20081;-82
2023/06/27 11:43:16;;;;;;;2.63;1.20;;;22.50;73.00;;;;;;4901794;29;20040;-84
2023/06/27 11:45:47;;;;;;;2.97;1.15;;;22.50;72.40;;;;;;4938579;29;20500;-84
2023/06/27 11:48:12;;;;;;;3.78;1.15;;;22.40;72.30;;;;;;4938341;29;20113;-84
2023/06/27 11:50:56;;;;;;;2.95;1.52;;;22.40;74.90;;;;;;4929269;29;20135;-83
2023/06/27 11:53:26;;;;;;;5.03;1.30;;;22.30;75.20;;;;;;4919677;29;20206;-83
2023/06/27 11:55:54;;;;;;;3.63;1.00;;;22.20;74.90;;;;;;4919392;29;20048;-85
2023/06/27 11:58:30;;;;;;;1.73;1.02;;;22.10;74.40;;;;;;4919427;29;20048;-83
2023/06/27 12:00:57;;;;;;;3.40;1.17;;;21.90;72.30;;;;;;4903403;29;20127;-83
2023/06/27 12:03:28;;;;;;;4.30;1.05;;;21.90;76.40;;;;;;4903899;29;20393;-85
2023/06/27 12:05:57;;;;;;;3.38;1.13;;;21.90;76.30;;;;;;4921751;29;20055;-82
2023/06/27 12:08:34;;;;;;;3.58;1.10;;;22.00;77.80;;;;;;4919161;29;20126;-82
2023/06/27 12:11:02;;;;;;;2.80;1.10;;;22.10;75.00;;;;;;4903170;29;20055;-83
2023/06/27 12:13:37;;;;;;;3.80;1.27;;;22.20;74.40;;;;;;4910977;29;20513;-84
2023/06/27 12:16:04;;;;;;;2.92;1.20;;;22.10;72.60;;;;;;4922392;29;20046;-84
2023/06/27 12:18:30;;;;;;;2.58;1.15;;;22.00;73.40;;;;;;4918665;29;20051;-83
2023/06/27 12:20:57;;;;;;;2.25;1.15;;;22.00;75.50;;;;;;4937646;29;20047;-83
2023/06/27 12:23:27;;;;;;;3.67;1.10;;;22.10;76.20;;;;;;4920268;29;20087;-83
2023/06/27 12:25:53;;;;;;;3.60;1.20;;;22.00;75.90;;;;;;4903738;29;20047;-83
2023/06/27 12:28:19;;;;;;;1.98;1.10;;;22.00;76.50;;;;;;4918800;29;20047;-82
2023/06/27 12:30:45;;;;;;;2.50;1.20;;;21.80;78.60;;;;;;4889354;29;20139;-83
2023/06/27 12:33:11;;;;;;;3.47;1.20;;;21.80;84.50;;;;;;4906676;29;20042;-83
2023/06/27 12:35:37;;;;;;;2.08;1.13;;;21.70;85.20;;;;;;4924599;29;20052;-83
2023/06/27 12:38:03;;;;;;;2.85;1.10;;;21.80;90.50;;;;;;4902857;29;20118;-83
2023/06/27 12:40:28;;;;;;;5.65;1.30;;;21.80;90.60;;;;;;4902268;29;20485;-83
2023/06/27 12:42:54;;;;;;;4.30;1.30;;;21.90;93.70;;;;;;4909986;29;20067;-84
2023/06/27 12:45:22;;;;;;;3.95;1.40;;;21.90;91.40;;;;;;4902237;29;20051;-84
2023/06/27 12:47:48;;;;;;;3.92;1.40;;;21.80;89.10;;;;;;4917163;29;20075;-81